createdAt,value
2018-05-21T00:01:11.650Z,63.81
2018-05-21T00:03:39.936Z,64.25
2018-05-21T00:06:09.188Z,63.29
2018-05-21T00:08:38.489Z,64.08
2018-05-21T00:11:06.776Z,63.44
2018-05-21T00:13:35.860Z,63.52
2018-05-21T00:16:05.629Z,63.44
2018-05-21T00:18:35.602Z,64.37
2018-05-21T00:21:05.167Z,64.36
2018-05-21T00:23:34.321Z,63.85
2018-05-21T00:26:06.940Z,64.42
2018-05-21T00:28:38.041Z,64.26
2018-05-21T00:31:06.415Z,63.67
2018-05-21T00:33:34.709Z,63.64
2018-05-21T00:36:04.498Z,64.23
2018-05-21T00:38:32.811Z,64.09
2018-05-21T00:41:01.109Z,64.91
2018-05-21T00:43:30.301Z,64.18
2018-05-21T00:45:59.465Z,64.14
2018-05-21T00:48:27.799Z,64.85
2018-05-21T00:50:58.725Z,65.08
2018-05-21T00:53:28.088Z,64.87
2018-05-21T00:55:56.866Z,64.31
2018-05-21T00:58:25.158Z,64.54
2018-05-21T01:00:54.990Z,64.57
2018-05-21T01:03:23.954Z,64.37
2018-05-21T01:05:52.750Z,64.18
2018-05-21T01:08:21.892Z,63.95
2018-05-21T01:10:51.882Z,64.56
2018-05-21T01:13:21.394Z,64.32
2018-05-21T01:15:51.119Z,65.11
2018-05-21T01:18:20.191Z,64.95
2018-05-21T01:20:48.561Z,65.10
2018-05-21T01:23:16.865Z,66.31
2018-05-21T01:25:46.428Z,65.75
2018-05-21T01:28:14.650Z,65.84
2018-05-21T01:30:43.322Z,65.82
2018-05-21T01:33:11.774Z,65.99
2018-05-21T01:35:41.679Z,67.00
2018-05-21T01:38:10.083Z,66.38
2018-05-21T01:40:39.391Z,66.68
2018-05-21T01:43:09.598Z,66.57
2018-05-21T01:45:37.895Z,66.40
2018-05-21T01:48:06.199Z,66.72
2018-05-21T01:50:35.298Z,67.84
2018-05-21T01:53:04.641Z,68.47
2018-05-21T01:55:34.787Z,67.89
2018-05-21T01:58:03.726Z,67.57
2018-05-21T02:00:32.835Z,67.96
2018-05-21T02:03:01.139Z,68.55
2018-05-21T02:05:29.849Z,67.77
2018-05-21T02:07:58.183Z,68.24
2018-05-21T02:10:26.469Z,68.72
2018-05-21T02:12:54.735Z,68.55
2018-05-21T02:15:23.238Z,68.79
2018-05-21T02:17:52.712Z,68.74
2018-05-21T02:20:22.861Z,69.04
2018-05-21T02:22:51.490Z,67.88
2018-05-21T02:25:20.294Z,68.18
2018-05-21T02:27:48.581Z,68.20
2018-05-21T02:30:17.761Z,67.88
2018-05-21T02:32:46.653Z,68.06
2018-05-21T02:35:16.442Z,68.76
2018-05-21T02:37:45.247Z,68.83
2018-05-21T02:40:14.408Z,68.16
2018-05-21T02:42:42.718Z,68.47
2018-05-21T02:45:11.687Z,68.12
2018-05-21T02:47:40.497Z,68.22
2018-05-21T02:50:08.877Z,69.12
2018-05-21T02:52:38.141Z,68.70
2018-05-21T02:55:06.454Z,68.28
2018-05-21T02:57:34.867Z,68.68
2018-05-21T03:00:03.362Z,68.38
2018-05-21T03:02:33.134Z,68.70
2018-05-21T03:05:01.439Z,68.78
2018-05-21T03:07:30.918Z,69.14
2018-05-21T03:09:59.226Z,69.13
2018-05-21T03:12:27.985Z,68.78
2018-05-21T03:14:57.001Z,68.99
2018-05-21T03:17:25.387Z,68.90
2018-05-21T03:19:55.272Z,68.94
2018-05-21T03:22:25.046Z,69.29
2018-05-21T03:24:53.603Z,69.10
2018-05-21T03:27:22.662Z,69.48
2018-05-21T03:29:50.969Z,69.41
2018-05-21T03:32:19.320Z,69.67
2018-05-21T03:34:47.719Z,69.14
2018-05-21T03:37:16.875Z,69.33
2018-05-21T03:39:45.175Z,69.73
2018-05-21T03:42:14.058Z,70.16
2018-05-21T03:44:42.658Z,69.86
2018-05-21T03:47:12.181Z,69.84
2018-05-21T03:49:41.853Z,69.79
2018-05-21T03:52:10.160Z,69.68
2018-05-21T03:54:38.533Z,69.95
2018-05-21T03:57:07.738Z,70.48
2018-05-21T03:59:53.837Z,69.84
2018-05-21T04:02:39.974Z,69.55
2018-05-21T04:05:09.022Z,69.55
2018-05-21T04:07:38.236Z,69.55
2018-05-21T04:10:06.903Z,69.98
2018-05-21T04:12:35.179Z,69.54
2018-05-21T04:15:03.685Z,69.12
2018-05-21T04:17:31.959Z,68.80
2018-05-21T04:20:00.868Z,69.77
2018-05-21T04:22:30.300Z,68.03
2018-05-21T04:24:59.519Z,68.75
2018-05-21T04:27:28.243Z,68.71
2018-05-21T04:29:57.350Z,68.97
2018-05-21T04:32:26.378Z,68.67
2018-05-21T04:34:54.756Z,69.35
2018-05-21T04:37:23.285Z,69.99
2018-05-21T04:39:52.052Z,69.78
2018-05-21T04:42:20.763Z,69.02
2018-05-21T04:44:49.234Z,69.53
2018-05-21T04:47:18.249Z,68.66
2018-05-21T04:49:46.837Z,68.28
2018-05-21T04:52:15.143Z,68.32
2018-05-21T04:54:45.553Z,69.35
2018-05-21T04:57:14.758Z,69.12
2018-05-21T04:59:43.178Z,68.44
2018-05-21T05:02:12.843Z,68.49
2018-05-21T05:04:41.514Z,68.80
2018-05-21T05:07:11.379Z,69.47
2018-05-21T05:09:39.669Z,68.82
2018-05-21T05:12:07.978Z,68.83
2018-05-21T05:14:36.377Z,68.35
2018-05-21T05:17:04.743Z,69.07
2018-05-21T05:19:33.897Z,68.72
2018-05-21T05:22:02.314Z,68.88
2018-05-21T05:24:31.357Z,68.83
2018-05-21T05:27:00.505Z,69.95
2018-05-21T05:29:29.675Z,68.91
2018-05-21T05:31:58.413Z,68.95
2018-05-21T05:34:27.121Z,69.87
2018-05-21T05:36:56.220Z,69.60
2018-05-21T05:39:25.314Z,69.39
2018-05-21T05:41:54.451Z,69.37
2018-05-21T05:44:23.240Z,69.91
2018-05-21T05:46:52.344Z,70.01
2018-05-21T05:49:21.188Z,67.99
2018-05-21T05:51:50.307Z,67.65
2018-05-21T05:54:19.401Z,68.42
2018-05-21T05:56:48.531Z,68.01
2018-05-21T05:59:17.862Z,68.07
2018-05-21T06:01:46.449Z,68.03
2018-05-21T06:04:14.917Z,67.99
2018-05-21T06:06:43.206Z,68.04
2018-05-21T06:09:11.961Z,66.76
2018-05-21T06:11:40.373Z,67.79
2018-05-21T06:14:09.205Z,66.35
2018-05-21T06:16:39.740Z,66.24
2018-05-21T06:19:08.508Z,65.97
2018-05-21T06:21:37.648Z,66.92
2018-05-21T06:24:05.970Z,66.01
2018-05-21T06:26:35.079Z,66.23
2018-05-21T06:29:04.140Z,65.27
2018-05-21T06:31:32.936Z,65.28
2018-05-21T06:34:01.296Z,64.79
2018-05-21T06:36:30.115Z,64.99
2018-05-21T06:38:58.946Z,64.12
2018-05-21T06:41:28.543Z,63.56
2018-05-21T06:43:57.706Z,63.57
2018-05-21T06:46:26.293Z,63.78
2018-05-21T06:48:55.297Z,62.27
2018-05-21T06:51:24.353Z,63.17
2018-05-21T06:53:52.670Z,63.05
2018-05-21T06:56:21.854Z,62.47
2018-05-21T06:58:51.111Z,62.20
2018-05-21T07:01:20.094Z,62.88
2018-05-21T07:03:50.022Z,63.38
2018-05-21T07:06:19.715Z,62.67
2018-05-21T07:08:49.590Z,62.08
2018-05-21T07:11:18.374Z,60.53
2018-05-21T07:13:46.681Z,59.31
2018-05-21T07:16:15.590Z,59.65
2018-05-21T07:18:44.675Z,58.19
2018-05-21T07:21:14.733Z,58.18
2018-05-21T07:23:43.054Z,56.66
2018-05-21T07:26:11.374Z,57.02
2018-05-21T07:28:39.907Z,59.45
2018-05-21T07:31:08.210Z,56.64
2018-05-21T07:33:36.988Z,58.28
2018-05-21T07:36:05.306Z,56.87
2018-05-21T07:38:34.569Z,57.23
2018-05-21T07:41:02.881Z,58.30
2018-05-21T07:43:32.009Z,55.78
2018-05-21T07:46:00.302Z,53.41
2018-05-21T07:48:28.655Z,54.41
2018-05-21T07:50:56.974Z,54.80
2018-05-21T07:53:25.285Z,53.88
2018-05-21T07:55:54.384Z,53.29
2018-05-21T07:58:23.457Z,53.56
2018-05-21T08:00:51.790Z,53.29
2018-05-21T08:03:20.114Z,53.50
2018-05-21T08:05:48.493Z,53.58
2018-05-21T08:08:16.837Z,51.40
2018-05-21T08:10:45.184Z,51.50
2018-05-21T08:13:13.531Z,50.79
2018-05-21T08:15:42.026Z,51.63
2018-05-21T08:18:11.239Z,52.37
2018-05-21T08:20:40.318Z,50.86
2018-05-21T08:23:08.626Z,52.84
2018-05-21T08:25:37.838Z,52.03
2018-05-21T08:28:06.139Z,50.40
2018-05-21T08:30:34.708Z,50.11
2018-05-21T08:33:03.044Z,49.57
2018-05-21T08:35:32.131Z,48.51
2018-05-21T08:38:00.758Z,48.41
2018-05-21T08:40:29.575Z,47.55
2018-05-21T08:42:58.425Z,47.33
2018-05-21T08:45:26.858Z,47.27
2018-05-21T08:47:55.952Z,47.48
2018-05-21T08:50:24.398Z,46.71
2018-05-21T08:52:52.799Z,47.63
2018-05-21T08:55:21.135Z,48.41
2018-05-21T08:57:50.224Z,47.22
2018-05-21T09:00:19.303Z,47.23
2018-05-21T09:02:47.701Z,46.83
2018-05-21T09:05:16.521Z,48.03
2018-05-21T09:07:45.087Z,46.54
2018-05-21T09:10:15.318Z,45.92
2018-05-21T09:12:43.613Z,45.63
2018-05-21T09:15:12.070Z,47.41
2018-05-21T09:17:41.597Z,44.95
2018-05-21T09:20:09.907Z,44.54
2018-05-21T09:22:38.540Z,43.87
2018-05-21T09:25:10.637Z,45.01
2018-05-21T09:27:38.933Z,43.30
2018-05-21T09:30:07.318Z,44.20
2018-05-21T09:32:35.677Z,42.29
2018-05-21T09:35:05.589Z,42.65
2018-05-21T09:37:34.647Z,42.78
2018-05-21T09:40:03.897Z,42.25
2018-05-21T09:42:32.180Z,40.87
2018-05-21T09:45:00.463Z,41.73
2018-05-21T09:47:29.879Z,41.62
2018-05-21T09:49:58.949Z,40.19
2018-05-21T09:52:27.829Z,40.57
2018-05-21T09:54:57.058Z,39.70
2018-05-21T09:57:25.353Z,39.46
2018-05-21T09:59:54.404Z,40.67
2018-05-21T10:02:23.088Z,39.16
2018-05-21T10:04:51.398Z,39.68
2018-05-21T10:07:19.708Z,41.48
2018-05-21T10:09:49.500Z,39.69
2018-05-21T10:12:18.003Z,39.98
2018-05-21T10:14:47.109Z,40.92
2018-05-21T10:17:16.268Z,37.60
2018-05-21T10:19:44.563Z,41.65
2018-05-21T10:22:14.149Z,39.54
2018-05-21T10:24:42.824Z,38.72
2018-05-21T10:27:11.602Z,37.69
2018-05-21T10:29:40.781Z,36.07
2018-05-21T10:32:09.989Z,37.39
2018-05-21T10:34:38.292Z,38.39
2018-05-21T10:37:06.697Z,39.51
2018-05-21T10:39:35.640Z,38.61
2018-05-21T10:42:04.066Z,38.18
2018-05-21T10:44:33.344Z,36.00
2018-05-21T10:47:02.329Z,34.82
2018-05-21T10:49:30.631Z,35.67
2018-05-21T10:51:59.599Z,34.59
2018-05-21T10:54:28.199Z,34.71
2018-05-21T10:56:56.509Z,34.82
2018-05-21T10:59:25.579Z,34.68
2018-05-21T11:01:53.962Z,35.10
2018-05-21T11:04:22.298Z,34.83
2018-05-21T11:06:51.217Z,34.52
2018-05-21T11:09:19.543Z,34.06
2018-05-21T11:11:47.899Z,34.49
2018-05-21T11:14:16.323Z,36.33
2018-05-21T11:16:46.254Z,34.91
2018-05-21T11:19:14.950Z,35.52
2018-05-21T11:21:44.521Z,34.55
2018-05-21T11:24:14.193Z,34.52
2018-05-21T11:26:42.499Z,35.33
2018-05-21T11:29:12.368Z,34.64
2018-05-21T11:31:42.311Z,35.80
2018-05-21T11:34:10.893Z,35.53
2018-05-21T11:36:40.118Z,34.62
2018-05-21T11:39:08.461Z,34.56
2018-05-21T11:41:36.840Z,34.52
2018-05-21T11:44:05.446Z,32.38
2018-05-21T11:46:33.749Z,33.22
2018-05-21T11:49:03.147Z,34.74
2018-05-21T11:51:31.457Z,34.78
2018-05-21T11:54:00.333Z,34.39
2018-05-21T11:56:29.592Z,34.51
2018-05-21T11:58:58.399Z,34.68
2018-05-21T12:01:26.790Z,34.36
2018-05-21T12:03:55.852Z,35.57
2018-05-21T12:06:24.251Z,34.33
2018-05-21T12:08:53.032Z,33.17
2018-05-21T12:11:22.710Z,35.83
2018-05-21T12:13:51.330Z,34.97
2018-05-21T12:16:20.515Z,35.16
2018-05-21T12:18:48.968Z,33.02
2018-05-21T12:21:17.280Z,33.91
2018-05-21T12:23:45.659Z,31.02
2018-05-21T12:26:14.041Z,30.55
2018-05-21T12:28:42.432Z,26.78
2018-05-21T12:31:10.962Z,27.34
2018-05-21T12:33:40.202Z,27.95
2018-05-21T12:36:08.538Z,26.09
2018-05-21T12:38:37.921Z,28.16
2018-05-21T12:41:07.813Z,26.57
2018-05-21T12:43:36.174Z,24.89
2018-05-21T12:46:04.461Z,25.99
2018-05-21T12:48:32.762Z,26.60
2018-05-21T12:51:01.952Z,28.46
2018-05-21T12:53:31.253Z,25.96
2018-05-21T12:55:59.738Z,25.90
2018-05-21T12:58:30.254Z,27.43
2018-05-21T13:00:58.951Z,26.31
2018-05-21T13:03:28.639Z,26.16
2018-05-21T13:05:57.474Z,26.28
2018-05-21T13:08:27.256Z,24.83
2018-05-21T13:10:56.692Z,25.97
2018-05-21T13:13:26.579Z,27.48
2018-05-21T13:15:54.955Z,26.55
2018-05-21T13:18:24.286Z,25.90
2018-05-21T13:20:53.334Z,26.58
2018-05-21T13:23:21.963Z,27.37
2018-05-21T13:25:51.423Z,25.56
2018-05-21T13:28:21.351Z,23.79
2018-05-21T13:30:50.042Z,25.44
2018-05-21T13:33:18.922Z,26.27
2018-05-21T13:35:47.389Z,25.79
2018-05-21T13:38:16.365Z,24.97
2018-05-21T13:40:44.864Z,24.00
2018-05-21T13:43:13.734Z,24.12
2018-05-21T13:45:42.094Z,24.38
2018-05-21T13:48:11.076Z,27.06
2018-05-21T13:50:39.406Z,25.01
2018-05-21T13:53:07.707Z,24.87
2018-05-21T13:55:36.037Z,23.93
2018-05-21T13:58:06.100Z,24.00
2018-05-21T14:00:35.700Z,24.36
2018-05-21T14:03:04.154Z,23.61
2018-05-21T14:05:33.845Z,21.78
2018-05-21T14:08:02.911Z,21.76
2018-05-21T14:10:31.250Z,23.29
2018-05-21T14:12:59.561Z,22.90
2018-05-21T14:15:28.620Z,23.48
2018-05-21T14:17:56.906Z,24.21
2018-05-21T14:20:25.610Z,21.92
2018-05-21T14:22:55.108Z,23.55
2018-05-21T14:25:23.440Z,25.08
2018-05-21T14:27:52.362Z,22.63
2018-05-21T14:30:21.609Z,24.08
2018-05-21T14:32:50.755Z,24.94
2018-05-21T14:35:20.302Z,23.78
2018-05-21T14:37:48.621Z,25.52
2018-05-21T14:40:17.104Z,25.30
2018-05-21T14:42:45.581Z,24.16
2018-05-21T14:45:14.502Z,24.21
2018-05-21T14:47:43.404Z,23.82
2018-05-21T14:50:11.850Z,24.15
2018-05-21T14:52:40.771Z,26.56
2018-05-21T14:55:09.095Z,25.94
2018-05-21T14:57:37.411Z,24.95
2018-05-21T15:00:06.470Z,23.14
2018-05-21T15:02:34.811Z,23.40
2018-05-21T15:05:04.480Z,23.79
2018-05-21T15:07:34.082Z,22.93
2018-05-21T15:10:03.300Z,23.97
2018-05-21T15:12:33.887Z,24.70
2018-05-21T15:15:04.491Z,24.38
2018-05-21T15:17:32.913Z,24.48
2018-05-21T15:20:02.681Z,23.61
2018-05-21T15:22:30.976Z,24.83
2018-05-21T15:24:59.336Z,24.42
2018-05-21T15:27:28.957Z,24.45
2018-05-21T15:29:57.847Z,25.00
2018-05-21T15:32:27.636Z,23.56
2018-05-21T15:34:56.032Z,23.80
2018-05-21T15:37:24.314Z,24.92
2018-05-21T15:39:52.934Z,24.53
2018-05-21T15:42:21.642Z,23.54
2018-05-21T15:44:51.616Z,25.14
2018-05-21T15:47:20.014Z,25.07
2018-05-21T15:49:48.323Z,25.03
2018-05-21T15:52:16.628Z,23.79
2018-05-21T15:54:45.754Z,26.06
2018-05-21T15:57:14.937Z,27.03
2018-05-21T15:59:43.354Z,28.26
2018-05-21T16:02:11.666Z,29.23
2018-05-21T16:04:40.239Z,28.13
2018-05-21T16:07:08.549Z,28.31
2018-05-21T16:09:39.086Z,29.01
2018-05-21T16:12:07.430Z,28.91
2018-05-21T16:14:35.764Z,29.02
2018-05-21T16:17:04.140Z,30.13
2018-05-21T16:19:32.463Z,30.75
2018-05-21T16:22:00.797Z,30.05
2018-05-21T16:24:29.104Z,30.99
2018-05-21T16:26:57.409Z,29.71
2018-05-21T16:29:26.333Z,31.43
2018-05-21T16:31:55.485Z,31.31
2018-05-21T16:34:24.318Z,32.28
2018-05-21T16:36:52.753Z,32.67
2018-05-21T16:39:22.591Z,32.51
2018-05-21T16:41:52.343Z,32.17
2018-05-21T16:44:22.226Z,31.36
2018-05-21T16:46:52.211Z,30.94
2018-05-21T16:49:21.598Z,32.56
2018-05-21T16:51:49.904Z,31.68
2018-05-21T16:54:18.265Z,34.30
2018-05-21T16:56:46.555Z,32.00
2018-05-21T16:59:15.705Z,33.58
2018-05-21T17:01:45.144Z,31.60
2018-05-21T17:04:14.237Z,32.21
2018-05-21T17:06:43.214Z,33.55
2018-05-21T17:09:12.331Z,33.98
2018-05-21T17:11:40.637Z,35.43
2018-05-21T17:14:08.939Z,35.74
2018-05-21T17:16:38.019Z,37.12
2018-05-21T17:19:07.934Z,36.85
2018-05-21T17:21:37.016Z,39.43
2018-05-21T17:24:05.758Z,38.62
2018-05-21T17:26:34.535Z,40.19
2018-05-21T17:29:03.170Z,40.61
2018-05-21T17:31:32.306Z,41.55
2018-05-21T17:34:02.613Z,42.05
2018-05-21T17:36:31.982Z,42.75
2018-05-21T17:39:00.282Z,44.10
2018-05-21T17:41:30.425Z,45.72
2018-05-21T17:43:59.513Z,44.40
2018-05-21T17:46:28.602Z,46.21
2018-05-21T17:48:57.865Z,47.08
2018-05-21T17:51:27.022Z,46.46
2018-05-21T17:53:56.107Z,47.32
2018-05-21T17:56:24.416Z,47.48
2018-05-21T17:58:53.216Z,47.89
2018-05-21T18:01:23.009Z,47.85
2018-05-21T18:03:52.070Z,48.06
2018-05-21T18:06:21.216Z,48.10
2018-05-21T18:08:50.317Z,48.22
2018-05-21T18:11:19.546Z,47.99
2018-05-21T18:13:47.873Z,48.85
2018-05-21T18:16:17.353Z,49.50
2018-05-21T18:18:47.085Z,49.88
2018-05-21T18:21:15.374Z,50.54
2018-05-21T18:23:44.634Z,51.88
2018-05-21T18:26:13.249Z,52.26
2018-05-21T18:28:44.879Z,52.11
2018-05-21T18:31:14.680Z,52.41
2018-05-21T18:33:42.976Z,52.37
2018-05-21T18:36:12.861Z,52.14
2018-05-21T18:38:41.603Z,52.89
2018-05-21T18:41:10.717Z,52.52
2018-05-21T18:43:39.645Z,53.28
2018-05-21T18:46:08.035Z,53.45
2018-05-21T18:48:36.707Z,53.40
2018-05-21T18:51:05.074Z,54.09
2018-05-21T18:53:34.814Z,53.89
2018-05-21T18:56:03.514Z,54.46
2018-05-21T18:58:32.150Z,55.24
2018-05-21T19:01:01.325Z,54.99
2018-05-21T19:03:30.484Z,55.50
2018-05-21T19:05:59.377Z,54.72
2018-05-21T19:08:27.951Z,55.57
2018-05-21T19:10:57.896Z,55.34
2018-05-21T19:13:28.601Z,55.71
2018-05-21T19:15:57.605Z,56.83
2018-05-21T19:18:26.304Z,56.21
2018-05-21T19:20:54.913Z,56.21
2018-05-21T19:23:24.613Z,57.55
2018-05-21T19:25:53.700Z,57.52
2018-05-21T19:28:22.391Z,57.95
2018-05-21T19:30:51.455Z,57.63
2018-05-21T19:33:19.754Z,57.98
2018-05-21T19:35:48.637Z,58.12
2018-05-21T19:38:17.758Z,58.34
2018-05-21T19:40:46.088Z,58.28
2018-05-21T19:43:14.700Z,58.40
2018-05-21T19:45:43.782Z,58.28
2018-05-21T19:48:12.188Z,58.07
2018-05-21T19:50:40.627Z,58.73
2018-05-21T19:53:08.924Z,58.67
2018-05-21T19:55:37.266Z,59.33
2018-05-21T19:58:06.804Z,59.14
2018-05-21T20:00:35.497Z,59.40
2018-05-21T20:03:03.998Z,59.72
2018-05-21T20:05:33.192Z,60.29
2018-05-21T20:08:02.243Z,60.33
2018-05-21T20:10:30.682Z,60.50
2018-05-21T20:12:59.891Z,60.73
2018-05-21T20:15:29.937Z,60.96
2018-05-21T20:17:58.881Z,61.47
2018-05-21T20:20:43.141Z,61.50
2018-05-21T20:23:12.964Z,62.54
2018-05-21T20:25:41.883Z,62.32
2018-05-21T20:28:10.965Z,62.77
2018-05-21T20:30:39.258Z,62.99
2018-05-21T20:33:08.405Z,62.67
2018-05-21T20:35:37.608Z,63.81
2018-05-21T20:38:06.449Z,63.60
2018-05-21T20:40:35.558Z,63.09
2018-05-21T20:43:03.903Z,63.63
2018-05-21T20:45:32.962Z,64.09
2018-05-21T20:48:01.291Z,64.28
2018-05-21T20:50:30.563Z,64.46
2018-05-21T20:52:59.417Z,64.53
2018-05-21T20:55:27.736Z,64.37
2018-05-21T20:57:56.104Z,64.42
2018-05-21T21:00:24.404Z,64.60
2018-05-21T21:02:53.342Z,64.81
2018-05-21T21:05:22.888Z,64.66
2018-05-21T21:07:51.194Z,64.69
2018-05-21T21:10:20.264Z,64.79
2018-05-21T21:12:48.973Z,65.82
2018-05-21T21:15:18.059Z,65.22
2018-05-21T21:17:46.360Z,65.05
2018-05-21T21:20:15.457Z,66.17
2018-05-21T21:22:44.524Z,66.44
2018-05-21T21:25:12.817Z,66.11
2018-05-21T21:27:42.098Z,65.78
2018-05-21T21:30:10.382Z,65.31
2018-05-21T21:32:38.725Z,66.01
2018-05-21T21:35:07.880Z,65.80
2018-05-21T21:37:36.957Z,65.99
2018-05-21T21:40:05.270Z,65.81
2018-05-21T21:42:34.641Z,66.24
2018-05-21T21:45:02.935Z,66.21
2018-05-21T21:47:32.065Z,66.18
2018-05-21T21:50:01.097Z,65.84
2018-05-21T21:52:29.975Z,65.68
2018-05-21T21:54:58.372Z,66.02
2018-05-21T21:57:26.747Z,66.05
2018-05-21T21:59:55.079Z,65.40
2018-05-21T22:02:24.350Z,65.55
2018-05-21T22:04:53.746Z,65.02
2018-05-21T22:07:22.917Z,65.48
2018-05-21T22:09:52.072Z,65.28
2018-05-21T22:12:21.958Z,65.54
2018-05-21T22:14:51.561Z,65.47
2018-05-21T22:17:19.867Z,65.90
2018-05-21T22:19:49.058Z,65.56
2018-05-21T22:22:18.876Z,65.69
2018-05-21T22:24:47.963Z,65.75
2018-05-21T22:27:17.130Z,65.72
2018-05-21T22:29:45.425Z,66.27
2018-05-21T22:32:13.779Z,65.57
2018-05-21T22:34:42.311Z,65.68
2018-05-21T22:37:11.959Z,66.74
2018-05-21T22:39:40.287Z,66.19
2018-05-21T22:42:08.596Z,66.65
2018-05-21T22:44:42.806Z,66.84
2018-05-21T22:47:11.918Z,66.78
2018-05-21T22:49:41.058Z,67.01
2018-05-21T22:52:09.416Z,67.04
2018-05-21T22:54:37.763Z,67.17
2018-05-21T22:57:06.141Z,66.73
2018-05-21T22:59:34.797Z,67.28
2018-05-21T23:02:03.770Z,67.02
2018-05-21T23:04:32.140Z,67.08
2018-05-21T23:07:01.071Z,68.26
2018-05-21T23:09:30.199Z,67.26
2018-05-21T23:11:58.784Z,67.04
2018-05-21T23:14:28.441Z,67.80
2018-05-21T23:16:56.790Z,67.74
2018-05-21T23:19:25.139Z,68.12
2018-05-21T23:21:53.529Z,67.67
2018-05-21T23:24:22.488Z,67.18
2018-05-21T23:26:51.295Z,67.77
2018-05-21T23:29:20.159Z,67.26
2018-05-21T23:31:48.578Z,67.35
2018-05-21T23:34:17.647Z,68.06
2018-05-21T23:36:46.751Z,68.20
2018-05-21T23:39:15.414Z,67.76
2018-05-21T23:41:44.389Z,67.56
2018-05-21T23:44:12.677Z,67.80
2018-05-21T23:46:41.095Z,67.89
2018-05-21T23:49:10.171Z,68.37
2018-05-21T23:51:38.542Z,69.27
2018-05-21T23:54:07.533Z,68.94
2018-05-21T23:56:36.144Z,68.82
2018-05-21T23:59:04.489Z,69.08
